Dobrodošli na spletni strani vremenske postaje Senovo. Vse informacije so informativnega značaja, saj vremenska postaja ni del državne mreže meteoroloških postaj. AKTUALNIH OBVESTIL NI.


Sneg/Led Od: 21-02-2018 00:00 Do: 23-02-2018 23:59 Opozorilo za: Sneg/Led Stopnja: Rumena info button
Veter Od: 21-02-2018 00:00 Do: 22-02-2018 23:59 Opozorilo za: Veter Stopnja: Rumena info button

Pogled proti Armezu več informacij Pogled proti Armezu


Lisca več informacij Lisca


Radar strel več informacij blitzortung!


opozorilo za sneg/led več informacij rain snow radar


Obiščite še:

Template documentation
and downloads

And another site



Weather Underground, zgodovina - Tekstovno

Dnevni povzetek za Maj 25, 2017 Enote:  Metrično    Angleško   Obe
« Predhodni Dan
Naslednji Dan »
Dnevni Tedenski Mesečni Letni Po meri
  Višja: Nižja: Povprečje:
Temperatura: -17.8 °C -12.1 °C -8.8 °C
Točka rosišča: -17.8 °C -14.1 °C -12.4 °C
Vlažnost: Humidity % 40 % 68 %
Hitrost vetra: 0 km/h 0 km/h 4.7 km/h
Sunki vetra: 0 km/h - -
Veter:- - ESE
Zračni tlak: 0 hPa 34428.8 hPa -
Padavine: 25.4 mm    
Historical Graphs
 
 
Tabelarni podarki za Maj 25, 2017
Čas Temperatura Točka rosišča Zračni tlak Veter Hitrost vetra Sunki vetra Vlažnost Intenziteta padavin (urna)
-17.8 °C -17.8 °C 0 hPa Calm     Humidity % 0 mm
00:00 -9.9 °C -10.5 °C 34428.8 hPa Calm     93 % 0 mm
00:05 -9.9 °C -10.4 °C 34428.8 hPa Calm     94 % 0 mm
00:10 -9.9 °C -10.4 °C 34428.8 hPa Calm     94 % 0 mm
00:15 -9.9 °C -10.4 °C 34476.3 hPa Calm     94 % 0 mm
00:20 -9.9 °C -10.4 °C 34476.3 hPa Calm     94 % 0 mm
00:25 -9.9 °C -10.4 °C 34476.3 hPa Calm     94 % 0 mm
00:30 -9.9 °C -10.4 °C 34476.3 hPa Calm     94 % 0 mm
00:35 -9.9 °C -10.4 °C 34476.3 hPa North 1.3 km/h   94 % 0 mm
00:40 -9.9 °C -10.4 °C 34476.3 hPa North 1 km/h   94 % 0 mm
00:45 -9.9 °C -10.4 °C 34476.3 hPa Calm     94 % 0 mm
00:50 -10 °C -10.5 °C 34476.3 hPa Calm     94 % 0 mm
00:55 -10 °C -10.5 °C 34476.3 hPa Calm     94 % 0 mm
01:00 -10 °C -10.5 °C 34476.3 hPa Calm     94 % 7.62 mm
01:05 -9.9 °C -10.4 °C 34476.3 hPa ESE 1 km/h 8.9 km/h 94 % 7.62 mm
01:10 -9.7 °C -10.2 °C 34476.3 hPa SE 4.3 km/h 8.9 km/h 94 % 7.62 mm
01:15 -9.7 °C -10.2 °C 34476.3 hPa SE 6 km/h 8.9 km/h 94 % 7.62 mm
01:20 -9.6 °C -10.2 °C 34476.3 hPa East 7.2 km/h 16.9 km/h 94 % 7.62 mm
01:25 -9.6 °C -10.2 °C 34476.3 hPa ENE 9 km/h 22.5 km/h 93 % 7.62 mm
01:30 -9.6 °C -10.4 °C 34476.3 hPa ENE 12.4 km/h 22.5 km/h 91 % 7.62 mm
01:35 -9.6 °C -10.5 °C 34476.3 hPa ENE 11.9 km/h 22.5 km/h 90 % 7.62 mm
01:40 -9.6 °C -10.7 °C 34476.3 hPa ENE 11.1 km/h 20.3 km/h 88 % 7.62 mm
01:45 -9.7 °C -10.9 °C 34476.3 hPa ENE 11.1 km/h 20.3 km/h 86 % 7.62 mm
01:50 -9.7 °C -11.3 °C 34476.3 hPa ENE 11.4 km/h 33.2 km/h 82 % 7.62 mm
01:55 -9.7 °C -11.4 °C 34476.3 hPa ENE 11.9 km/h 33.2 km/h 81 % 7.62 mm
02:00 -9.7 °C -11.4 °C 34476.3 hPa ENE 7.7 km/h 20.9 km/h 82 % 0 mm
02:05 -9.8 °C -11.6 °C 34476.3 hPa NE 7.6 km/h 22 km/h 81 % 0 mm
02:10 -9.8 °C -11.7 °C 34476.3 hPa ENE 9.7 km/h 26.7 km/h 80 % 0 mm
02:13 -9.8 °C -12.1 °C 34476.3 hPa East 11.4 km/h 26.7 km/h 77 % 0 mm
02:18 -9.8 °C -12.4 °C 34476.3 hPa ENE 14.5 km/h 33.6 km/h 74 % 0 mm
02:23 -9.8 °C -12.5 °C 34476.3 hPa ENE 16.6 km/h 33.6 km/h 73 % 0 mm
02:28 -9.8 °C -12.6 °C 34476.3 hPa ENE 16.9 km/h 27.2 km/h 72 % 0 mm
02:33 -9.8 °C -12.6 °C 34476.3 hPa ENE 16.3 km/h 27.2 km/h 72 % 0 mm
02:38 -9.9 °C -12.8 °C 34476.3 hPa ENE 16.1 km/h 33.2 km/h 71 % 0 mm
02:43 -9.9 °C -12.7 °C 34476.3 hPa ENE 13.5 km/h 33.2 km/h 72 % 0 mm
02:48 -9.9 °C -12.8 °C 34476.3 hPa ENE 10.6 km/h 31.9 km/h 71 % 0 mm
02:53 -10 °C -12.9 °C 34476.3 hPa ENE 10.1 km/h 19.2 km/h 71 % 0 mm
02:58 -10 °C -12.9 °C 34496.6 hPa ENE 10.9 km/h 27.2 km/h 71 % 0 mm
03:03 -10.1 °C -12.9 °C 34496.6 hPa ENE 13.5 km/h 27.2 km/h 71 % 0 mm
03:08 -10.2 °C -12.8 °C 34496.6 hPa ENE 12.7 km/h 26.7 km/h 73 % 7.62 mm
03:13 -10.4 °C -12.9 °C 34496.6 hPa ENE 11.9 km/h 16.9 km/h 74 % 12.7 mm
03:18 -10.4 °C -12.8 °C 34496.6 hPa ENE 13.7 km/h 20.3 km/h 75 % 12.7 mm
03:23 -10.6 °C -12.8 °C 34496.6 hPa ENE 10.1 km/h 20.3 km/h 77 % 12.7 mm
03:28 -10.7 °C -12.7 °C 34496.6 hPa NE 8.5 km/h 10.3 km/h 78 % 12.7 mm
03:33 -10.8 °C -12.7 °C 34496.6 hPa North 7.2 km/h 7.2 km/h 79 % 20.32 mm
03:38 -10.9 °C -12.7 °C 34496.6 hPa NW 2.3 km/h 6.9 km/h 81 % 25.4 mm
03:43 -10.9 °C -12.6 °C 34533.8 hPa SSW 2.6 km/h 6.9 km/h 82 % 25.4 mm
03:48 -11 °C -12.6 °C 34533.8 hPa SSW 3.7 km/h 6.9 km/h 83 % 25.4 mm
03:53 -11.1 °C -12.6 °C 34533.8 hPa South 4.7 km/h 7.6 km/h 83 % 25.4 mm
03:58 -11.1 °C -12.6 °C 34496.6 hPa SSE 6 km/h 7.6 km/h 84 % 25.4 mm
04:01 -11.2 °C -12.6 °C 34496.6 hPa SSE 6.4 km/h 7.6 km/h 85 % 25.4 mm
04:06 -11.2 °C -12.6 °C 34496.6 hPa SSE 6.8 km/h 7.6 km/h 85 % 20.32 mm
04:11 -11.3 °C -12.6 °C 34496.6 hPa South 5 km/h 7.6 km/h 85 % 20.32 mm
04:16 -11.3 °C -12.6 °C 34533.8 hPa North 2.3 km/h   86 % 12.7 mm
04:21 -11.3 °C -12.5 °C 34533.8 hPa North 0.8 km/h   87 % 12.7 mm
04:26 -11.4 °C -12.4 °C 34533.8 hPa Calm     88 % 12.7 mm
04:31 -11.4 °C -12.4 °C 34496.6 hPa Calm     88 % 7.62 mm
04:36 -11.4 °C -12.4 °C 34496.6 hPa West 0.5 km/h 6.4 km/h 89 % 0 mm
04:41 -11.5 °C -12.4 °C 34496.6 hPa West 0.8 km/h 6.4 km/h 89 % 0 mm
04:46 -11.6 °C -12.6 °C 34533.8 hPa West 0.3 km/h 6.4 km/h 89 % 0 mm
04:51 -11.6 °C -12.4 °C 34533.8 hPa Calm   3.4 km/h 90 % 0 mm
04:56 -11.6 °C -12.6 °C 34533.8 hPa Calm   3.4 km/h 89 % 0 mm
05:01 -11.7 °C -12.6 °C 34533.8 hPa Calm     90 % 0 mm
05:06 -11.8 °C -12.7 °C 34533.8 hPa Calm     90 % 0 mm
05:11 -11.8 °C -12.6 °C 34533.8 hPa Calm     91 % 0 mm
05:16 -11.9 °C -12.7 °C 34533.8 hPa Calm     91 % 0 mm
05:21 -11.9 °C -12.7 °C 34533.8 hPa Calm     91 % 0 mm
05:26 -12.1 °C -12.8 °C 34533.8 hPa Calm     91 % 0 mm
05:31 -12.1 °C -12.8 °C 34496.6 hPa Calm     91 % 0 mm
05:36 -12.1 °C -12.9 °C 34496.6 hPa Calm   3.4 km/h 91 % 0 mm
05:41 -12.1 °C -12.8 °C 34496.6 hPa ENE 0.3 km/h 4.2 km/h 92 % 0 mm
05:46 -12.1 °C -12.8 °C 34533.8 hPa ENE 0.3 km/h 4.2 km/h 92 % 0 mm
05:51 -12.1 °C -12.8 °C 34533.8 hPa Calm   6.4 km/h 92 % 0 mm
05:56 -12.1 °C -12.7 °C 34533.8 hPa NNW 1.3 km/h 7.6 km/h 92 % 0 mm
06:01 -12.1 °C -12.7 °C 34496.6 hPa North 1 km/h 7.6 km/h 93 % 0 mm
06:06 -12.1 °C -12.7 °C 34496.6 hPa Calm     93 % 0 mm
06:11 -11.9 °C -12.6 °C 34496.6 hPa SE 0.5 km/h 7.6 km/h 93 % 0 mm
06:16 -11.9 °C -12.6 °C 34533.8 hPa SE 1 km/h 7.6 km/h 93 % 0 mm
06:21 -11.9 °C -12.5 °C 34533.8 hPa North 0.3 km/h   93 % 0 mm
06:26 -11.9 °C -12.5 °C 34533.8 hPa Calm     93 % 0 mm
06:31 -11.9 °C -12.5 °C 34533.8 hPa Calm     93 % 0 mm
06:36 -11.8 °C -12.3 °C 34533.8 hPa ENE 0.8 km/h 6.4 km/h 94 % 0 mm
06:41 -11.7 °C -12.3 °C 34533.8 hPa ENE 0.8 km/h 6.4 km/h 94 % 0 mm
06:46 -11.7 °C -12.3 °C 34533.8 hPa ENE 0.5 km/h 4.2 km/h 93 % 0 mm
06:51 -11.6 °C -12.2 °C 34533.8 hPa ESE 0.3 km/h 4.2 km/h 93 % 0 mm
06:56 -11.6 °C -12.2 °C 34533.8 hPa ENE 0.8 km/h 6.4 km/h 93 % 0 mm
07:01 -11.4 °C -12.1 °C 34567.7 hPa ENE 1.6 km/h 6.4 km/h 93 % 0 mm
07:06 -11.4 °C -12 °C 34567.7 hPa ENE 0.5 km/h 3.4 km/h 93 % 0 mm
07:11 -11.4 °C -12 °C 34567.7 hPa ENE 0.3 km/h 3.4 km/h 93 % 0 mm
07:16 -11.3 °C -11.9 °C 34533.8 hPa NE 1.3 km/h 5.6 km/h 93 % 0 mm
07:21 -11.3 °C -11.9 °C 34533.8 hPa NNE 1.8 km/h 6.9 km/h 93 % 0 mm
07:26 -11.3 °C -12 °C 34533.8 hPa NE 1.3 km/h 6.9 km/h 92 % 0 mm
07:31 -11.2 °C -11.8 °C 34533.8 hPa ENE 2.6 km/h 6.9 km/h 92 % 0 mm
07:36 -11.1 °C -11.8 °C 34533.8 hPa ENE 2.9 km/h 6.9 km/h 92 % 0 mm
07:41 -10.9 °C -11.6 °C 34533.8 hPa ESE 0.8 km/h 5.6 km/h 92 % 0 mm
07:46 -10.8 °C -11.6 °C 34533.8 hPa South 0.5 km/h 6.4 km/h 92 % 0 mm
07:51 -10.8 °C -11.5 °C 34533.8 hPa SSW 2.9 km/h 9.3 km/h 92 % 0 mm
07:56 -10.7 °C -11.3 °C 34533.8 hPa SSW 5.1 km/h 9.3 km/h 92 % 0 mm
08:01 -10.6 °C -11.3 °C 34533.8 hPa SSW 4.3 km/h 6.9 km/h 91 % 0 mm
08:06 -10.5 °C -11.3 °C 34533.8 hPa SW 3.4 km/h 6.9 km/h 91 % 0 mm
08:07 -10.5 °C -11.3 °C 34533.8 hPa SW 3.1 km/h 6.9 km/h 91 % 0 mm
08:12 -10.4 °C -11.2 °C 34533.8 hPa SW 1.6 km/h 6.9 km/h 91 % 0 mm
08:17 -10.2 °C -10.9 °C 34567.7 hPa ESE 0.8 km/h 8.9 km/h 91 % 0 mm
08:22 -10.1 °C -11 °C 34567.7 hPa ENE 2.6 km/h 8.9 km/h 90 % 0 mm
08:27 -9.9 °C -10.9 °C 34567.7 hPa ESE 3.9 km/h 9.3 km/h 89 % 0 mm
08:32 -9.8 °C -10.8 °C 34533.8 hPa SSW 5 km/h 10.3 km/h 89 % 0 mm
08:37 -9.6 °C -10.7 °C 34533.8 hPa SSW 4.3 km/h 10.3 km/h 88 % 0 mm
08:42 -9.4 °C -10.6 °C 34533.8 hPa SSW 4.3 km/h 9.3 km/h 87 % 0 mm
08:47 -9.2 °C -10.6 °C 34567.7 hPa SW 4.3 km/h 9.3 km/h 85 % 0 mm
08:52 -9.1 °C -10.6 °C 34567.7 hPa SSW 2.6 km/h 7.6 km/h 84 % 0 mm
08:57 -8.9 °C -10.5 °C 34567.7 hPa SE 2.3 km/h 8.9 km/h 83 % 0 mm
09:02 -8.7 °C -10.5 °C 34567.7 hPa SE 4.2 km/h 10.3 km/h 81 % 0 mm
09:07 -8.5 °C -10.5 °C 34567.7 hPa SE 6.4 km/h 12.7 km/h 79 % 0 mm
09:12 -8.4 °C -10.8 °C 34567.7 hPa SSE 5.5 km/h 12.7 km/h 76 % 0 mm
09:17 -8.3 °C -11 °C 34533.8 hPa SSW 3.7 km/h 10.3 km/h 73 % 0 mm
09:22 -8.3 °C -11 °C 34533.8 hPa SSE 2.6 km/h 10.3 km/h 73 % 0 mm
09:27 -8.2 °C -11.1 °C 34533.8 hPa ENE 3.4 km/h 9.8 km/h 72 % 0 mm
09:32 -8.1 °C -11.1 °C 34533.8 hPa East 4.2 km/h 10.3 km/h 71 % 0 mm
09:37 -8.1 °C -11 °C 34533.8 hPa SW 4.2 km/h 10.3 km/h 71 % 0 mm
09:42 -8.1 °C -11 °C 34533.8 hPa SW 6 km/h 12.7 km/h 71 % 0 mm
09:47 -8.1 °C -11.3 °C 34533.8 hPa SSW 6.4 km/h 12.7 km/h 69 % 0 mm
09:52 -8.1 °C -11.2 °C 34533.8 hPa South 5 km/h 8.9 km/h 70 % 0 mm
09:57 -8.1 °C -11.4 °C 34533.8 hPa SSW 3.7 km/h 9.8 km/h 68 % 0 mm
10:02 -8.1 °C -11.4 °C 34533.8 hPa South 5 km/h 16.3 km/h 68 % 0 mm
10:07 -7.9 °C -11.5 °C 34533.8 hPa SSE 5.5 km/h 16.3 km/h 66 % 0 mm
10:12 -7.9 °C -11.7 °C 34533.8 hPa SW 4.2 km/h 9.3 km/h 64 % 0 mm
10:17 -7.7 °C -11.6 °C 34533.8 hPa SW 6.4 km/h 14.5 km/h 64 % 0 mm
10:22 -7.6 °C -11.4 °C 34533.8 hPa WSW 8 km/h 14.5 km/h 64 % 0 mm
10:27 -7.4 °C -11.4 °C 34533.8 hPa WSW 6.3 km/h 12.7 km/h 63 % 0 mm
10:32 -7.3 °C -11.7 °C 34533.8 hPa SSE 3.9 km/h 8.9 km/h 60 % 0 mm
10:37 -7.2 °C -11.8 °C 34533.8 hPa ESE 5.1 km/h 11.6 km/h 58 % 0 mm
10:42 -7.1 °C -11.9 °C 34533.8 hPa ESE 7.2 km/h 26.7 km/h 57 % 0 mm
10:47 -7.1 °C -12.7 °C 34496.6 hPa East 12.4 km/h 34.1 km/h 52 % 0 mm
10:52 -7.1 °C -12.7 °C 34496.6 hPa NE 12.9 km/h 34.1 km/h 52 % 0 mm
10:57 -7.1 °C -13 °C 34496.6 hPa NE 9.8 km/h 26.7 km/h 50 % 0 mm
11:02 -6.9 °C -12.9 °C 34533.8 hPa NE 9 km/h 26.7 km/h 50 % 0 mm
11:07 -7 °C -13.6 °C 34533.8 hPa ENE 10.1 km/h 27.7 km/h 46 % 0 mm
11:12 -7 °C -13.3 °C 34533.8 hPa ENE 11.9 km/h 27.7 km/h 48 % 0 mm
11:17 -6.9 °C -13.3 °C 34496.6 hPa ENE 9 km/h 22.5 km/h 47 % 0 mm
11:22 -6.8 °C -12.9 °C 34496.6 hPa ENE 8 km/h 15 km/h 49 % 0 mm
11:27 -6.8 °C -13.1 °C 34496.6 hPa NE 8 km/h 19.2 km/h 48 % 0 mm
11:32 -6.8 °C -13.1 °C 34496.6 hPa ENE 6.8 km/h 19.2 km/h 48 % 0 mm
11:37 -6.7 °C -13.2 °C 34496.6 hPa East 7.2 km/h 16.3 km/h 47 % 0 mm
11:42 -6.6 °C -13.1 °C 34496.6 hPa ENE 9 km/h 16.3 km/h 47 % 0 mm
11:47 -6.4 °C -12.9 °C 34496.6 hPa ENE 10.9 km/h 19.2 km/h 47 % 0 mm
11:52 -6.3 °C -12.8 °C 34496.6 hPa ENE 11.1 km/h 19.2 km/h 47 % 0 mm
11:57 -6.6 °C -13.2 °C 34496.6 hPa NE 11.1 km/h 19.2 km/h 46 % 0 mm
12:02 -6.6 °C -13.3 °C 34496.6 hPa NE 7.7 km/h 7.7 km/h 46 % 0 mm
12:07 -6.7 °C -13.3 °C 34496.6 hPa East 8.2 km/h 9.3 km/h 46 % 0 mm
12:12 -6.7 °C -13.3 °C 34496.6 hPa East 8 km/h 9.3 km/h 46 % 0 mm
12:17 -6.7 °C -13.3 °C 34496.6 hPa East 5.5 km/h 6.9 km/h 46 % 0 mm
12:22 -6.8 °C -13.4 °C 34496.6 hPa East 3.4 km/h 6.9 km/h 46 % 0 mm
12:27 -6.8 °C -13.4 °C 34496.6 hPa East 5.1 km/h 8.9 km/h 46 % 0 mm
12:32 -6.9 °C -13.8 °C 34496.6 hPa ENE 8 km/h 8.9 km/h 45 % 0 mm
12:37 -6.8 °C -13.5 °C 34496.6 hPa East 11.6 km/h 15.6 km/h 46 % 0 mm
12:42 -6.7 °C -13.5 °C 34496.6 hPa ENE 12.2 km/h 27.2 km/h 45 % 0 mm
12:47 -6.3 °C -13.2 °C 34496.6 hPa ENE 10.6 km/h 27.2 km/h 45 % 0 mm
12:52 -6.2 °C -12.9 °C 34496.6 hPa ENE 8.2 km/h 16.9 km/h 46 % 0 mm
12:57 -6.4 °C -13.4 °C 34496.6 hPa East 8.2 km/h 12.7 km/h 44 % 0 mm
13:02 -6.6 °C -13.4 °C 34476.3 hPa SE 11.9 km/h 12.7 km/h 45 % 0 mm
13:07 -6.6 °C -13.4 °C 34476.3 hPa ENE 11.6 km/h 16.9 km/h 45 % 0 mm
13:12 -6.4 °C -13.2 °C 34476.3 hPa NE 7.6 km/h 16.9 km/h 45 % 0 mm
13:17 -6.1 °C -13 °C 34476.3 hPa ESE 5 km/h 11.1 km/h 45 % 0 mm
13:22 -6.1 °C -13.1 °C 34476.3 hPa ESE 6.8 km/h 26.7 km/h 44 % 0 mm
13:27 -6.2 °C -13.3 °C 34476.3 hPa East 8.9 km/h 26.7 km/h 44 % 0 mm
13:32 -6.4 °C -13.6 °C 34476.3 hPa East 11.9 km/h 20.9 km/h 43 % 0 mm
13:37 -6.5 °C -13.7 °C 34476.3 hPa East 15.6 km/h 20.9 km/h 43 % 0 mm
13:42 -6.6 °C -13.7 °C 34476.3 hPa East 14.5 km/h 16.3 km/h 44 % 0 mm
13:47 -6.7 °C -13.7 °C 34476.3 hPa ENE 9.8 km/h 16.3 km/h 44 % 0 mm
13:52 -6.7 °C -13.7 °C 34476.3 hPa West 5.6 km/h 6.4 km/h 44 % 0 mm
13:57 -6.7 °C -13.7 °C 34476.3 hPa SSE 6 km/h 14 km/h 44 % 0 mm
14:02 -6.8 °C -13.6 °C 34428.8 hPa SSE 6.9 km/h 14 km/h 45 % 0 mm
14:07 -6.9 °C -13.9 °C 34428.8 hPa SSE 8 km/h 9.8 km/h 44 % 0 mm
14:12 -7.1 °C -14.1 °C 34428.8 hPa SE 6.8 km/h 9.8 km/h 44 % 0 mm
14:17 -7 °C -13.8 °C 34476.3 hPa ENE 7.2 km/h 16.3 km/h 45 % 0 mm
14:22 -6.8 °C -13.7 °C 34476.3 hPa ENE 7.7 km/h 16.3 km/h 45 % 0 mm
14:27 -6.7 °C -13.7 °C 34476.3 hPa East 7.7 km/h 12.7 km/h 44 % 0 mm
14:32 -6.4 °C -13.4 °C 34428.8 hPa SE 8 km/h 15 km/h 44 % 0 mm
14:37 -6.3 °C -13.4 °C 34428.8 hPa SSE 9.3 km/h 16.9 km/h 44 % 0 mm
14:42 -6.3 °C -13.4 °C 34428.8 hPa SE 11.1 km/h 19.2 km/h 44 % 0 mm
14:47 -6.4 °C -13.4 °C 34428.8 hPa ESE 10.3 km/h 19.2 km/h 44 % 0 mm
14:52 -6.5 °C -13.7 °C 34428.8 hPa East 10.6 km/h 22.5 km/h 43 % 0 mm
14:57 -6.3 °C -13.4 °C 34428.8 hPa East 9.8 km/h 22.5 km/h 44 % 0 mm
15:02 -6.4 °C -13.7 °C 34428.8 hPa ENE 7.7 km/h 14.5 km/h 43 % 0 mm
15:07 -6.4 °C -13.6 °C 34428.8 hPa East 8.5 km/h 14.5 km/h 43 % 0 mm
15:10 -6.4 °C -13.7 °C 34428.8 hPa ESE 8.5 km/h 11.1 km/h 43 % 0 mm
15:15 -6.3 °C -13.3 °C 34496.6 hPa East 6.8 km/h 15 km/h 44 % 0 mm
15:20 -6.1 °C -13.3 °C 34496.6 hPa ENE 6.3 km/h 15 km/h 43 % 0 mm
15:25 -5.9 °C -13.2 °C 34496.6 hPa ENE 7.7 km/h 28.5 km/h 43 % 0 mm
15:30 -5.8 °C -13.1 °C 34476.3 hPa ENE 10.3 km/h 28.5 km/h 43 % 0 mm
15:35 -5.7 °C -13.2 °C 34476.3 hPa East 13.5 km/h 26.2 km/h 42 % 0 mm
15:40 -5.7 °C -13.4 °C 34476.3 hPa ENE 14.5 km/h 28.5 km/h 41 % 0 mm
15:45 -5.8 °C -13.3 °C 34476.3 hPa East 14.5 km/h 28.5 km/h 42 % 0 mm
15:50 -5.9 °C -13.4 °C 34476.3 hPa SE 15.6 km/h 28.5 km/h 42 % 0 mm
15:55 -6 °C -13.4 °C 34476.3 hPa SSE 9.8 km/h 10.3 km/h 42 % 0 mm
16:00 -6.2 °C -13.4 °C 34496.6 hPa ENE 8 km/h 12.7 km/h 43 % 0 mm
16:05 -6.2 °C -13.7 °C 34496.6 hPa ENE 6.8 km/h 12.7 km/h 42 % 0 mm
16:10 -6.3 °C -13.7 °C 34496.6 hPa NNE 4.7 km/h 9.8 km/h 42 % 0 mm
16:15 -6.1 °C -13.3 °C 34476.3 hPa NE 3.9 km/h 10.3 km/h 43 % 0 mm
16:25 -5.8 °C -13.3 °C 34476.3 hPa ESE 10.6 km/h 19.6 km/h 42 % 0 mm
16:30 -5.7 °C -13.2 °C 34476.3 hPa East 10.3 km/h 14.5 km/h 42 % 0 mm
16:35 -5.7 °C -13.2 °C 34476.3 hPa ENE 9.3 km/h 19.2 km/h 42 % 0 mm
16:40 -5.6 °C -13.3 °C 34476.3 hPa ENE 8 km/h 19.2 km/h 41 % 0 mm
16:45 -5.7 °C -13.2 °C 34476.3 hPa ENE 9.8 km/h 26.2 km/h 42 % 0 mm
16:50 -5.8 °C -13.3 °C 34476.3 hPa East 11.9 km/h 26.2 km/h 42 % 0 mm
16:55 -5.8 °C -13.4 °C 34476.3 hPa ESE 6 km/h 14.5 km/h 41 % 0 mm
17:00 -5.7 °C -13.2 °C 34476.3 hPa SE 3.7 km/h 14.5 km/h 42 % 0 mm
17:05 -5.4 °C -13.2 °C 34476.3 hPa SE 8 km/h 12.7 km/h 41 % 0 mm
17:10 -5.4 °C -13.2 °C 34476.3 hPa ESE 10.6 km/h 19.6 km/h 41 % 0 mm
17:15 -5.6 °C -13.3 °C 34476.3 hPa East 9.7 km/h 19.6 km/h 41 % 0 mm
17:20 -5.5 °C -13.2 °C 34476.3 hPa East 9.7 km/h 19.2 km/h 41 % 0 mm
17:25 -5.7 °C -13.6 °C 34476.3 hPa East 9.7 km/h 19.2 km/h 40 % 0 mm
17:28 -5.6 °C -13.3 °C 34476.3 hPa ENE 8 km/h 16.3 km/h 41 % 0 mm
17:33 -5.9 °C -13.4 °C 34476.3 hPa East 7.6 km/h 16.3 km/h 42 % 0 mm
17:38 -6.1 °C -13.5 °C 34476.3 hPa East 10.1 km/h 17.4 km/h 42 % 0 mm
17:43 -6.3 °C -13.6 °C 34476.3 hPa ESE 9.3 km/h 17.4 km/h 43 % 0 mm
17:48 -6.5 °C -13.7 °C 34476.3 hPa SE 7.6 km/h 15.6 km/h 43 % 0 mm
17:53 -6.7 °C -13.8 °C 34476.3 hPa SE 7.6 km/h 15.6 km/h 43 % 0 mm
17:58 -6.8 °C -13.8 °C 34476.3 hPa SE 7.2 km/h 10.3 km/h 44 % 0 mm
18:03 -6.9 °C -13.9 °C 34476.3 hPa SE 5.6 km/h 9.8 km/h 44 % 0 mm
18:08 -7 °C -14 °C 34476.3 hPa SE 2.9 km/h 6.4 km/h 44 % 0 mm
18:13 -7.1 °C -13.8 °C 34476.3 hPa West 1.6 km/h 7.6 km/h 45 % 0 mm
18:18 -7.1 °C -13.9 °C 34476.3 hPa West 1.3 km/h 7.6 km/h 45 % 0 mm
18:23 -7.2 °C -13.8 °C 34476.3 hPa South 1.6 km/h 7.6 km/h 46 % 0 mm
18:28 -7.2 °C -13.7 °C 34476.3 hPa SSW 1.6 km/h 7.6 km/h 47 % 0 mm
18:33 -7.3 °C -13.5 °C 34476.3 hPa WSW 1 km/h 4.2 km/h 48 % 0 mm
18:38 -7.3 °C -13.4 °C 34476.3 hPa West 0.3 km/h 4.2 km/h 49 % 0 mm
18:43 -7.3 °C -13.2 °C 34476.3 hPa Calm   2.9 km/h 50 % 0 mm
18:48 -7.3 °C -13 °C 34476.3 hPa Calm   3.4 km/h 51 % 0 mm
18:58 -7.3 °C -12.4 °C 34476.3 hPa West 1 km/h 6.4 km/h 55 % 0 mm
19:04 -7.4 °C -12.6 °C 34476.3 hPa West 3.1 km/h 6.4 km/h 55 % 0 mm
19:09 -7.4 °C -12.4 °C 34476.3 hPa West 4.3 km/h 6.4 km/h 56 % 0 mm
19:14 -7.6 °C -12.6 °C 34476.3 hPa West 2.6 km/h 6.4 km/h 56 % 0 mm
19:19 -7.7 °C -12.3 °C 34476.3 hPa North 0.5 km/h   58 % 0 mm
19:24 -7.7 °C -12.4 °C 34476.3 hPa Calm     58 % 0 mm
19:29 -7.8 °C -12.2 °C 34496.6 hPa Calm     60 % 0 mm
19:34 -7.8 °C -12.1 °C 34496.6 hPa Calm     61 % 0 mm
19:39 -7.9 °C -11.9 °C 34496.6 hPa Calm   2.9 km/h 63 % 0 mm
19:44 -8 °C -12 °C 34476.3 hPa Calm   2.9 km/h 63 % 0 mm
19:49 -8.1 °C -11.9 °C 34476.3 hPa Calm     64 % 0 mm
19:54 -8.2 °C -12.1 °C 34476.3 hPa Calm     63 % 0 mm
19:59 -8.2 °C -12.2 °C 34476.3 hPa Calm     63 % 0 mm
20:04 -8.3 °C -12.2 °C 34476.3 hPa Calm     64 % 0 mm
20:09 -8.4 °C -11.9 °C 34476.3 hPa Calm     67 % 0 mm
20:14 -8.5 °C -11.8 °C 34428.8 hPa Calm     68 % 0 mm
20:19 -8.6 °C -11.8 °C 34428.8 hPa Calm     69 % 0 mm
20:24 -8.7 °C -11.8 °C 34428.8 hPa Calm     69 % 0 mm
20:29 -8.8 °C -12.1 °C 34476.3 hPa Calm     68 % 0 mm
20:34 -8.8 °C -11.9 °C 34476.3 hPa Calm     70 % 0 mm
20:39 -8.9 °C -11.9 °C 34476.3 hPa Calm     70 % 0 mm
20:44 -8.9 °C -12.1 °C 34476.3 hPa Calm     69 % 0 mm
20:49 -9 °C -11.9 °C 34476.3 hPa Calm     71 % 0 mm
20:54 -9.1 °C -12.1 °C 34476.3 hPa Calm     71 % 0 mm
20:59 -9.1 °C -12.1 °C 34476.3 hPa Calm     71 % 0 mm
21:04 -9.2 °C -12 °C 34476.3 hPa Calm   4.2 km/h 72 % 0 mm
21:09 -9.2 °C -12 °C 34476.3 hPa NW 0.3 km/h 4.2 km/h 72 % 0 mm
21:14 -9.3 °C -12.2 °C 34476.3 hPa North 0.3 km/h   71 % 0 mm
21:19 -9.3 °C -12 °C 34476.3 hPa Calm     73 % 0 mm
21:20 -9.3 °C -12 °C 34476.3 hPa Calm     73 % 0 mm
21:25 -9.4 °C -12.1 °C 34476.3 hPa Calm     73 % 0 mm
21:30 -9.4 °C -12 °C 34496.6 hPa Calm     74 % 0 mm
21:35 -9.5 °C -12.1 °C 34496.6 hPa Calm     74 % 0 mm
21:40 -9.5 °C -12.1 °C 34496.6 hPa Calm     74 % 0 mm
21:45 -9.6 °C -12.1 °C 34496.6 hPa NW 0.5 km/h 8 km/h 74 % 0 mm
21:50 -9.6 °C -12.2 °C 34496.6 hPa NW 1.3 km/h 8 km/h 74 % 0 mm
21:55 -9.6 °C -12.1 °C 34496.6 hPa WNW 0.8 km/h 5.1 km/h 75 % 0 mm
22:00 -9.7 °C -12.2 °C 34496.6 hPa Calm   4.2 km/h 74 % 0 mm
22:05 -9.7 °C -12.2 °C 34496.6 hPa Calm     74 % 0 mm
22:10 -9.7 °C -12.3 °C 34496.6 hPa Calm     74 % 0 mm
22:15 -9.8 °C -12.2 °C 34496.6 hPa Calm     76 % 0 mm
22:20 -9.9 °C -12.3 °C 34496.6 hPa Calm     76 % 0 mm
22:25 -10 °C -12.3 °C 34496.6 hPa Calm     76 % 0 mm
22:30 -10.1 °C -12.3 °C 34533.8 hPa Calm     77 % 0 mm
22:35 -10.2 °C -12.4 °C 34533.8 hPa Calm     77 % 0 mm
22:40 -10.3 °C -12.4 °C 34533.8 hPa Calm     77 % 0 mm
22:45 -10.4 °C -12.4 °C 34533.8 hPa Calm     78 % 0 mm
22:50 -10.5 °C -12.6 °C 34533.8 hPa Calm     78 % 0 mm
22:55 -10.6 °C -12.6 °C 34533.8 hPa Calm     78 % 0 mm
23:00 -10.7 °C -12.7 °C 34533.8 hPa Calm     79 % 0 mm
23:05 -10.8 °C -12.7 °C 34533.8 hPa Calm     80 % 0 mm
23:10 -10.9 °C -12.7 °C 34533.8 hPa Calm     80 % 0 mm
23:15 -10.9 °C -12.8 °C 34533.8 hPa Calm     80 % 0 mm
23:20 -11.1 °C -12.9 °C 34533.8 hPa Calm     80 % 0 mm
23:25 -11.1 °C -12.9 °C 34533.8 hPa Calm     81 % 0 mm
23:30 -11.2 °C -12.9 °C 34533.8 hPa Calm     81 % 0 mm
23:35 -11.3 °C -13 °C 34533.8 hPa Calm     82 % 0 mm
23:40 -11.4 °C -13 °C 34533.8 hPa Calm     82 % 0 mm
23:45 -11.4 °C -13.1 °C 34533.8 hPa Calm     82 % 0 mm
23:50 -11.6 °C -13.2 °C 34533.8 hPa Calm     82 % 0 mm
23:55 -11.6 °C -13.2 °C 34533.8 hPa Calm     82 % 0 mm
Vremenska postaja Senovo
Podatki zbrani iz Weather Underground - 3 mb

Script developed by  Jim McMurry - jmcmurry@mwt.net Adapted for the template by  Wim van der Kuil - Leuven-Template.eu

Vremenski podatki so objavljeni na:

European Weather Network

WeatherCloud

Weather Underground

AWEKAS

HAMweather, WeatherForYou, PWS Weather

MapView

Geostik

Slovenia weather network

Oprema, ki se uporablja:

Vremenski program
Cumulus

Vremenski server
Asus

Cumulus

Asus